Terminal Aerodrome Forecast
Issued by NWS Blacksburg, VA

Current Version | Previous Version | Graphics & Text | Print | Product List | Glossary On
Versions: 1 2 3 4 5 6 7 8 9 10 11 12 13 14 15 16 17 18 19 20 21 22 23 24 25 26 27 28 29 30 31 32
143
FTUS41 KRNK 251120
TAFBLF
TAF
KBLF 251120Z 2512/2612 00000KT P6SM BKN013
      TEMPO 2512/2513 3SM BR BKN003
     FM251400 30004KT P6SM SCT045=

USA.gov is the U.S. government's official web portal to all federal, state and local government web resources and services.